Flight Track Log - Related Links

Times and Time Zones

All times are in EDT time to prevent confusion due to time zone crossing. See the SWA554 flight status page for this flight to view local times or setup timezone preferences in your user account.

Time Position Orientation Groundspeed Altitude Reporting Facility
EDT Latitude Longitude Course Direction KTS MPH feet Rate Location/Type
Sun 02:39:57 PM 42.9667 -87.8833 North 163 188 1,500  Level KMKE
Sun 02:41:18 PM 43.0333 -87.8725 North 216 249 4,800 2,417 Climbing Chicago Center
Sun 02:42:21 PM 43.0567 -87.7917 68° East 291 335 7,300 2,784 Climbing Chicago Center
Sun 02:43:23 PM 42.9811 -87.7658 166° South 293 337 10,600 2,903 Climbing Chicago Center
Sun 02:44:25 PM 42.8803 -87.7669 180° South 312 359 13,300 2,613 Climbing Chicago Center
Sun 02:45:27 PM 42.7831 -87.7669 180° South 339 390 16,000 2,468 Climbing Chicago Center
Sun 02:46:29 PM 42.6867 -87.7264 163° South 360 414 18,400 2,226 Climbing Chicago Center
Sun 02:47:31 PM 42.5844 -87.6883 165° South 371 427 20,600 2,081 Climbing Chicago Center
Sun 02:48:33 PM 42.4817 -87.6500 165° South 383 441 22,700 1,920 Climbing Chicago Center
Sun 02:49:36 PM 42.3733 -87.6100 165° South 401 461 24,600 1,742 Climbing Chicago Center
Sun 02:50:37 PM 42.2636 -87.5697 165° South 409 471 26,300 1,756 Climbing Chicago Center
Sun 02:51:39 PM 42.1272 -87.5178 164° South 423 487 28,200 1,452 Climbing Chicago Center
Sun 02:52:41 PM 42.0164 -87.4522 156° South 449 517 29,300 1,403 Climbing Chicago Center
Sun 02:53:43 PM 41.9625 -87.2894 114° Southeast 489 563 31,100 1,597 Climbing Chicago Center
Sun 02:54:45 PM 41.9439 -87.1122 98° East 481 554 32,600 1,258 Climbing Chicago Center
Sun 02:55:47 PM 41.9250 -86.9336 98° East 485 558 33,700 1,056 Climbing Chicago Center
Sun 02:56:50 PM 41.9175 -86.7542 93° East 488 562 34,800 1,248 Climbing Chicago Center
Sun 02:57:52 PM 41.9094 -86.5442 93° East 483 556 36,300 1,065 Climbing Chicago Center
Sun 02:58:54 PM 41.8883 -86.3706 99° East 475 547 37,000 339 Climbing Chicago Center
Sun 02:59:56 PM 41.8697 -86.1933 98° East 478 550 37,000  Level Chicago Center
Sun 03:00:58 PM 41.8497 -86.0164 99° East 482 555 37,000  Level Chicago Center
Sun 03:02:00 PM 41.8306 -85.8372 98° East 484 557 37,000  Level Chicago Center
Sun 03:03:02 PM 41.8108 -85.6578 98° East 484 557 37,000  Level Chicago Center
Sun 03:04:04 PM 41.7864 -85.4400 98° East 483 556 37,000  Level Chicago Center
Sun 03:05:06 PM 41.7642 -85.2569 99° East 485 558 37,000  Level Chicago Center
Sun 03:06:08 PM 41.7469 -85.1125 99° East 485 558 37,000  Level Chicago Center
Sun 03:06:44 PM 41.7303 -84.9631 98° East 482 555 37,000  Level Cleveland Center
Sun 03:07:44 PM 41.7100 -84.7808 98° East 482 555 37,000  Level Cleveland Center
Sun 03:08:44 PM 41.6872 -84.6014 100° East 487 560 37,000  Level Cleveland Center
Sun 03:09:44 PM 41.6642 -84.4219 100° East 487 560 37,000  Level Cleveland Center
Sun 03:10:44 PM 41.6461 -84.2792 100° East 487 560 37,000  Level Cleveland Center
Sun 03:11:44 PM 41.6189 -84.0831 100° East 487 560 37,000  Level Cleveland Center
Sun 03:12:44 PM 41.5950 -83.9042 100° East 487 560 37,000  Level Cleveland Center
Sun 03:13:44 PM 41.5708 -83.7281 100° East 487 560 37,000  Level Cleveland Center
Sun 03:14:44 PM 41.5483 -83.5492 99° East 487 560 37,000  Level Cleveland Center
Sun 03:15:44 PM 41.5236 -83.3706 100° East 487 560 37,000  Level Cleveland Center
Sun 03:16:44 PM 41.4944 -83.1975 103° East 487 560 37,000  Level Cleveland Center
Sun 03:17:44 PM 41.4161 -83.0586 127° Southeast 474 545 37,000  Level Cleveland Center
Sun 03:18:44 PM 41.3336 -82.9200 128° Southeast 469 540 37,000  Level Cleveland Center
Sun 03:19:44 PM 41.2572 -82.7789 126° Southeast 474 545 37,000  Level Cleveland Center
Sun 03:20:44 PM 41.1847 -82.6331 123° Southeast 474 545 37,000  Level Cleveland Center
Sun 03:21:44 PM 41.1125 -82.4847 123° Southeast 480 552 37,000  Level Cleveland Center
Sun 03:22:44 PM 41.0317 -82.3228 123° Southeast 480 552 37,000  Level Cleveland Center
Sun 03:23:44 PM 40.9586 -82.1722 123° Southeast 480 552 37,000  Level Cleveland Center
Sun 03:24:44 PM 40.8836 -82.0250 124° Southeast 485 558 37,000  Level Cleveland Center
Sun 03:25:44 PM 40.8103 -81.8753 123° Southeast 485 558 37,000  Level Cleveland Center
Sun 03:26:44 PM 40.7347 -81.7311 125° Southeast 485 558 37,000  Level Cleveland Center
Sun 03:27:44 PM 40.6611 -81.5822 123° Southeast 485 558 37,000  Level Cleveland Center
Sun 03:28:44 PM 40.5872 -81.4361 124° Southeast 490 564 37,000  Level Cleveland Center
Sun 03:29:44 PM 40.5236 -81.3014 122° Southeast 485 558 37,000  Level Cleveland Center
Sun 03:30:44 PM 40.4492 -81.1561 124° Southeast 485 558 37,000  Level Cleveland Center
Sun 03:31:44 PM 40.3728 -81.0108 125° Southeast 485 558 37,000  Level Cleveland Center
Sun 03:32:44 PM 40.3003 -80.8689 124° Southeast 479 551 37,000 -500 Level Cleveland Center
Sun 03:33:44 PM 40.2233 -80.7272 125° Southeast 479 551 36,000 -950 Descending Cleveland Center
Sun 03:34:44 PM 40.1506 -80.5803 123° Southeast 479 551 35,100 -950 Descending Cleveland Center
Sun 03:35:44 PM 40.0733 -80.4339 125° Southeast 484 557 34,100 -950 Descending Cleveland Center
Sun 03:36:44 PM 39.9958 -80.2903 125° Southeast 484 557 33,200 -550 Descending Cleveland Center
Sun 03:37:44 PM 39.9203 -80.1444 124° Southeast 484 557 33,000 -100 Descending Cleveland Center
Sun 03:38:44 PM 39.8508 -79.9964 121° Southeast 489 563 33,000  Level Cleveland Center
Sun 03:39:44 PM 39.8122 -79.7994 104° East 488 562 33,000 -150 Level Cleveland Center
Sun 03:40:44 PM 39.7775 -79.6242 104° East 500 575 32,700 -1,550 Descending Cleveland Center
Sun 03:41:44 PM 39.7383 -79.4464 106° East 500 575 29,900 -2,600 Descending Cleveland Center
Sun 03:42:44 PM 39.7033 -79.2772 105° East 493 567 27,500 -2,250 Descending Cleveland Center
Sun 03:43:12 PM 39.6886 -79.2050 105° East 491 565 26,600 -1,724 Descending Washington Center
Sun 03:44:11 PM 39.6539 -79.0414 105° East 464 534 25,000 -807 Descending Washington Center
Sun 03:45:11 PM 39.6161 -78.9050 110° East 452 520 25,000 -298 Level Washington Center
Sun 03:46:12 PM 39.5828 -78.7525 106° East 445 512 24,400 -1,537 Descending Washington Center
Sun 03:47:12 PM 39.5492 -78.6006 106° East 445 512 21,900 -2,370 Descending Washington Center
Sun 03:48:11 PM 39.5172 -78.4539 106° East 440 506 19,700 -2,100 Descending Washington Center
Sun 03:49:12 PM 39.4872 -78.3103 105° East 428 493 17,700 -2,083 Descending Washington Center
Sun 03:50:12 PM 39.4547 -78.1744 107° East 410 472 15,500 -1,350 Descending Washington Center
Sun 03:51:12 PM 39.4492 -78.0400 93° East 389 448 15,000 -250 Descending Washington Center
Sun 03:52:12 PM 39.4478 -77.9056 91° East 378 435 15,000  Level Washington Center
Sun 03:53:12 PM 39.4461 -77.7683 91° East 378 435 15,000 -403 Level Washington Center
Sun 03:54:11 PM 39.4483 -77.6342 89° East 378 435 14,200 -1,361 Descending Washington Center
Sun 03:55:11 PM 39.4464 -77.4969 91° East 378 435 12,300 -1,587 Descending Washington Center
Sun 03:56:12 PM 39.4464 -77.3733 90° East 371 427 11,000 -886 Descending Washington Center
Sun 03:56:39 PM 39.4500 -77.3000 86° East 328 377 11,000  Level Potomac TRACON
Sun 03:57:39 PM 39.4667 -77.1833 79° East 323 372 11,000 -700 Level Potomac TRACON
Sun 03:58:39 PM 39.4833 -77.0667 79° East 334 384 9,600 -1,200 Descending Potomac TRACON
Sun 03:59:39 PM 39.4833 -76.9500 90° East 318 366 8,600 -1,240 Descending Potomac TRACON
Sun 04:00:40 PM 39.5000 -76.8333 79° East 304 350 7,100 -1,488 Descending Potomac TRACON
Sun 04:01:40 PM 39.4500 -76.7500 128° Southeast 293 337 5,600 -1,158 Descending Potomac TRACON
Sun 04:02:34 PM 39.4000 -76.7167 153° Southeast 263 303 4,900 -789 Descending Potomac TRACON
Sun 04:03:34 PM 39.3500 -76.7667 218° Southwest 216 249 4,100 -800 Descending Potomac TRACON
Sun 04:04:34 PM 39.3000 -76.8000 207° Southwest 211 243 3,300 -750 Descending Potomac TRACON
Sun 04:05:34 PM 39.2500 -76.8000 180° South 194 223 2,600 -678 Descending Potomac TRACON
Sun 04:06:29 PM 39.2000 -76.8000 180° South 172 198 2,000 -700 Descending Potomac TRACON
Sun 04:07:34 PM 39.1833 -76.7500 113° Southeast 151 174 1,200 -762 Descending Potomac TRACON
Sun 04:08:35 PM 39.1833 -76.7000 90° East 146 168 400 -787 Descending Potomac TRACON
Sun 04:10:00 PM 39.1667 -76.6667 157° South  Level FlightAware Approximate
Sun 04:17:00 PM 39.1754 -76.6683 157° South  Level Estimated
Sun 04:18:00 PM 39.1754 -76.6683 157° South  Level Estimated

Login

Don't have an account? Register now (free) for customized features, flight alerts, and more!